createdAt,value
2019-04-28T00:01:48.498Z,12.55
2019-04-28T00:07:07.395Z,12.53
2019-04-28T00:09:37.344Z,12.52
2019-04-28T00:12:07.578Z,12.56
2019-04-28T00:14:37.528Z,12.54
2019-04-28T00:17:08.148Z,12.52
2019-04-28T00:19:37.933Z,12.54
2019-04-28T00:22:16.817Z,12.46
2019-04-28T00:24:54.778Z,12.49
2019-04-28T00:27:24.830Z,12.53
2019-04-28T00:29:54.861Z,12.51
2019-04-28T00:32:24.854Z,12.55
2019-04-28T00:34:55.078Z,12.56
2019-04-28T00:37:43.054Z,12.56
2019-04-28T00:40:14.115Z,12.42
2019-04-28T00:42:43.908Z,12.40
2019-04-28T00:45:14.669Z,12.44
2019-04-28T00:47:44.615Z,12.46
2019-04-28T00:50:14.508Z,12.48
2019-04-28T00:52:44.903Z,12.37
2019-04-28T00:55:14.880Z,12.38
2019-04-28T00:57:44.815Z,12.36
2019-04-28T01:00:16.759Z,12.35
2019-04-28T01:02:46.764Z,12.38
2019-04-28T01:05:17.114Z,12.34
2019-04-28T01:07:47.369Z,12.30
2019-04-28T01:10:18.148Z,12.33
2019-04-28T01:12:48.133Z,12.31
2019-04-28T01:15:27.014Z,12.37
2019-04-28T01:18:10.472Z,12.38
2019-04-28T01:20:40.400Z,12.37
2019-04-28T01:23:10.466Z,12.36
2019-04-28T01:25:40.510Z,12.23
2019-04-28T01:28:10.462Z,12.10
2019-04-28T01:31:14.672Z,12.11
2019-04-28T01:34:04.424Z,12.09
2019-04-28T01:36:36.251Z,12.08
2019-04-28T01:39:07.609Z,12.09
2019-04-28T01:41:39.763Z,12.07
2019-04-28T01:44:10.387Z,12.01
2019-04-28T01:46:40.551Z,12.02
2019-04-28T01:49:10.502Z,12.04
2019-04-28T01:51:41.582Z,12.03
2019-04-28T01:54:11.883Z,12.05
2019-04-28T01:56:42.717Z,12.06
2019-04-28T01:59:12.653Z,12.10
2019-04-28T02:01:42.590Z,12.08
2019-04-28T02:04:12.545Z,12.03
2019-04-28T02:06:42.486Z,12.02
2019-04-28T02:09:12.655Z,12.00
2019-04-28T02:11:42.590Z,12.00
2019-04-28T02:14:12.746Z,12.06
2019-04-28T02:16:42.912Z,12.08
2019-04-28T02:19:12.915Z,11.91
2019-04-28T02:22:00.622Z,11.91
2019-04-28T02:24:37.398Z,11.94
2019-04-28T02:27:07.777Z,11.91
2019-04-28T02:29:37.769Z,11.93
2019-04-28T02:32:12.227Z,11.93
2019-04-28T02:34:42.225Z,11.89
2019-04-28T02:37:12.197Z,11.71
2019-04-28T02:39:42.526Z,11.67
2019-04-28T02:42:12.455Z,11.69
2019-04-28T02:44:42.433Z,11.60
2019-04-28T02:47:12.381Z,11.54
2019-04-28T02:50:05.776Z,11.53
2019-04-28T02:52:53.346Z,11.51
2019-04-28T02:55:23.700Z,11.58
2019-04-28T02:57:53.687Z,11.55
2019-04-28T03:00:23.655Z,11.53
2019-04-28T03:02:53.613Z,11.52
2019-04-28T03:05:23.669Z,11.51
2019-04-28T03:07:53.601Z,11.57
2019-04-28T03:10:23.609Z,11.61
2019-04-28T03:12:53.546Z,11.65
2019-04-28T03:15:23.501Z,11.67
2019-04-28T03:17:54.534Z,11.66
2019-04-28T03:20:24.477Z,11.58
2019-04-28T03:22:54.869Z,11.52
2019-04-28T03:25:33.519Z,11.48
2019-04-28T03:28:21.487Z,11.49
2019-04-28T03:31:59.190Z,11.51
2019-04-28T03:33:55.913Z,11.46
2019-04-28T03:36:27.091Z,11.41
2019-04-28T03:38:57.023Z,11.47
2019-04-28T03:41:26.973Z,11.54
2019-04-28T03:43:56.866Z,11.44
2019-04-28T03:46:30.411Z,11.44
2019-04-28T03:49:00.914Z,11.50
2019-04-28T03:51:31.169Z,11.56
2019-04-28T03:54:03.006Z,11.57
2019-04-28T03:56:32.597Z,11.64
2019-04-28T03:59:02.577Z,11.69
2019-04-28T04:01:32.497Z,11.67
2019-04-28T04:04:03.612Z,11.63
2019-04-28T04:06:34.914Z,11.60
2019-04-28T04:09:05.638Z,11.63
2019-04-28T04:11:41.832Z,11.60
2019-04-28T04:14:30.983Z,11.55
2019-04-28T04:17:12.035Z,11.45
2019-04-28T04:19:42.877Z,11.38
2019-04-28T04:22:14.124Z,11.34
2019-04-28T04:24:43.998Z,11.33
2019-04-28T04:27:13.868Z,11.34
2019-04-28T04:29:43.813Z,11.32
2019-04-28T04:32:22.760Z,11.32
2019-04-28T04:34:45.583Z,11.27
2019-04-28T04:37:15.546Z,11.33
2019-04-28T04:39:45.426Z,11.31
2019-04-28T04:42:15.384Z,11.38
2019-04-28T04:44:45.201Z,11.44
2019-04-28T04:47:15.171Z,11.48
2019-04-28T04:49:46.385Z,11.51
2019-04-28T04:52:16.319Z,11.47
2019-04-28T04:54:46.221Z,11.45
2019-04-28T04:57:16.417Z,11.48
2019-04-28T04:59:46.349Z,11.49
2019-04-28T05:02:33.111Z,11.52
2019-04-28T05:05:08.254Z,11.56
2019-04-28T05:07:39.633Z,11.53
2019-04-28T05:10:10.593Z,11.60
2019-04-28T05:12:40.530Z,11.66
2019-04-28T05:15:10.594Z,11.72
2019-04-28T05:17:40.463Z,11.70
2019-04-28T05:20:10.785Z,11.71
2019-04-28T05:22:47.799Z,11.70
2019-04-28T05:25:29.263Z,11.69
2019-04-28T05:28:02.788Z,11.72
2019-04-28T05:30:34.767Z,11.74
2019-04-28T05:33:03.085Z,11.72
2019-04-28T05:35:35.679Z,11.76
2019-04-28T05:38:05.320Z,11.75
2019-04-28T05:40:35.200Z,11.75
2019-04-28T05:43:05.195Z,11.65
2019-04-28T05:45:35.116Z,11.66
2019-04-28T05:48:05.085Z,11.70
2019-04-28T05:50:43.971Z,11.71
2019-04-28T05:53:21.765Z,11.72
2019-04-28T05:56:02.346Z,11.71
2019-04-28T05:58:47.802Z,11.72
2019-04-28T06:01:27.674Z,11.74
2019-04-28T06:03:57.556Z,11.74
2019-04-28T06:06:30.502Z,11.71
2019-04-28T06:09:25.663Z,11.66
2019-04-28T06:11:55.644Z,11.71
2019-04-28T06:14:25.835Z,11.74
2019-04-28T06:16:55.797Z,11.69
2019-04-28T06:19:25.967Z,11.65
2019-04-28T06:21:55.854Z,11.62
2019-04-28T06:24:25.823Z,11.58
2019-04-28T06:26:55.775Z,11.60
2019-04-28T06:29:25.937Z,11.53
2019-04-28T06:31:55.816Z,11.51
2019-04-28T06:34:25.680Z,11.56
2019-04-28T06:36:55.909Z,11.56
2019-04-28T06:39:26.209Z,11.64
2019-04-28T06:41:56.081Z,11.72
2019-04-28T06:44:26.074Z,11.71
2019-04-28T06:46:56.029Z,11.77
2019-04-28T06:49:25.976Z,11.78
2019-04-28T06:51:55.970Z,11.73
2019-04-28T06:54:25.902Z,11.70
2019-04-28T06:56:56.211Z,11.72
2019-04-28T06:59:26.165Z,11.71
2019-04-28T07:01:56.391Z,11.73
2019-04-28T07:04:26.367Z,11.75
2019-04-28T07:06:56.353Z,11.78
2019-04-28T07:09:26.539Z,11.78
2019-04-28T07:11:56.913Z,11.82
2019-04-28T07:14:26.788Z,11.75
2019-04-28T07:16:56.556Z,11.75
2019-04-28T07:19:27.558Z,11.72
2019-04-28T07:22:03.671Z,11.71
2019-04-28T07:24:33.964Z,11.63
2019-04-28T07:27:05.869Z,11.56
2019-04-28T07:29:36.092Z,11.51
2019-04-28T07:32:06.149Z,11.43
2019-04-28T07:34:35.923Z,11.41
2019-04-28T07:37:05.875Z,11.43
2019-04-28T07:39:35.870Z,11.45
2019-04-28T07:42:06.072Z,11.45
2019-04-28T07:44:36.042Z,11.51
2019-04-28T07:47:06.028Z,11.51
2019-04-28T07:49:35.925Z,11.59
2019-04-28T07:52:30.808Z,11.66
2019-04-28T07:55:01.750Z,11.66
2019-04-28T07:57:32.394Z,11.66
2019-04-28T08:00:03.894Z,11.77
2019-04-28T08:02:35.489Z,11.90
2019-04-28T08:05:05.933Z,12.03
2019-04-28T08:07:35.893Z,12.08
2019-04-28T08:10:07.098Z,12.11
2019-04-28T08:12:36.916Z,12.11
2019-04-28T08:15:06.976Z,12.12
2019-04-28T08:17:36.932Z,12.20
2019-04-28T08:20:06.861Z,12.26
2019-04-28T08:22:36.829Z,12.24
2019-04-28T08:25:07.126Z,12.27
2019-04-28T08:27:36.988Z,12.33
2019-04-28T08:30:07.089Z,12.32
2019-04-28T08:33:08.693Z,12.33
2019-04-28T08:35:38.670Z,12.40
2019-04-28T08:38:08.536Z,12.41
2019-04-28T08:40:38.859Z,12.46
2019-04-28T08:43:08.787Z,12.48
2019-04-28T08:45:38.800Z,12.51
2019-04-28T08:48:08.757Z,12.47
2019-04-28T08:50:39.560Z,12.32
2019-04-28T08:53:09.781Z,12.23
2019-04-28T08:55:39.965Z,12.24
2019-04-28T08:58:10.167Z,12.27
2019-04-28T09:00:40.113Z,12.32
2019-04-28T09:03:10.096Z,12.35
2019-04-28T09:05:40.409Z,12.38
2019-04-28T09:08:10.983Z,12.40
2019-04-28T09:10:41.914Z,12.45
2019-04-28T09:13:11.943Z,12.49
2019-04-28T09:15:41.878Z,12.54
2019-04-28T09:18:11.766Z,12.59
2019-04-28T09:20:42.122Z,12.65
2019-04-28T09:23:12.125Z,12.73
2019-04-28T09:25:41.989Z,12.79
2019-04-28T09:28:11.848Z,12.85
2019-04-28T09:30:43.077Z,12.91
2019-04-28T09:33:13.107Z,12.93
2019-04-28T09:35:43.210Z,13.01
2019-04-28T09:38:13.098Z,13.04
2019-04-28T09:40:43.324Z,13.10
2019-04-28T09:43:21.128Z,13.01
2019-04-28T09:45:56.531Z,12.87
2019-04-28T09:48:26.736Z,12.64
2019-04-28T09:50:57.009Z,12.11
2019-04-28T09:53:27.913Z,11.96
2019-04-28T09:55:57.916Z,11.90
2019-04-28T09:58:27.849Z,11.84
2019-04-28T10:00:57.860Z,11.86
2019-04-28T10:03:30.665Z,11.93
2019-04-28T10:05:59.514Z,11.91
2019-04-28T10:08:29.501Z,11.96
2019-04-28T10:10:59.551Z,11.96
2019-04-28T10:13:29.742Z,11.98
2019-04-28T10:16:00.055Z,11.91
2019-04-28T10:18:29.977Z,11.87
2019-04-28T10:21:00.233Z,11.91
2019-04-28T10:23:30.472Z,12.06
2019-04-28T10:26:00.422Z,12.18
2019-04-28T10:28:30.707Z,12.16
2019-04-28T10:31:00.698Z,12.27
2019-04-28T10:33:30.852Z,12.35
2019-04-28T10:36:00.751Z,12.27
2019-04-28T10:38:30.572Z,12.27
2019-04-28T10:41:07.557Z,12.33
2019-04-28T10:43:37.498Z,12.49
2019-04-28T10:46:07.499Z,12.75
2019-04-28T10:48:37.564Z,12.82
2019-04-28T10:51:07.816Z,12.92
2019-04-28T10:53:38.258Z,12.94
2019-04-28T10:56:08.412Z,12.92
2019-04-28T10:58:40.669Z,13.05
2019-04-28T11:01:10.618Z,13.13
2019-04-28T11:03:41.483Z,13.18
2019-04-28T11:06:12.717Z,13.27
2019-04-28T11:09:03.400Z,13.34
2019-04-28T11:11:36.105Z,13.40
2019-04-28T11:14:06.101Z,13.36
2019-04-28T11:16:36.529Z,13.34
2019-04-28T11:19:07.658Z,13.49
2019-04-28T11:21:38.171Z,13.61
2019-04-28T11:24:08.630Z,13.78
2019-04-28T11:26:38.870Z,13.77
2019-04-28T11:29:09.003Z,13.78
2019-04-28T11:31:38.932Z,13.93
2019-04-28T11:34:17.438Z,13.97
2019-04-28T11:36:47.463Z,13.98
2019-04-28T11:39:22.615Z,14.08
2019-04-28T11:41:52.596Z,14.09
2019-04-28T11:44:22.993Z,13.96
2019-04-28T11:46:54.333Z,14.12
2019-04-28T11:49:25.316Z,14.30
2019-04-28T11:51:55.581Z,14.34
2019-04-28T11:54:25.793Z,14.39
2019-04-28T11:56:55.755Z,14.39
2019-04-28T11:59:25.928Z,14.40
2019-04-28T12:01:55.964Z,14.44
2019-04-28T12:04:26.935Z,14.43
2019-04-28T12:06:56.872Z,14.39
2019-04-28T12:09:44.491Z,14.38
2019-04-28T12:12:31.100Z,14.36
2019-04-28T12:15:12.079Z,14.27
2019-04-28T12:17:52.979Z,14.17
2019-04-28T12:20:24.113Z,14.18
2019-04-28T12:22:53.997Z,14.20
2019-04-28T12:25:23.931Z,14.25
2019-04-28T12:27:54.208Z,14.31
2019-04-28T12:30:24.496Z,14.39
2019-04-28T12:32:54.428Z,14.33
2019-04-28T12:35:24.740Z,14.34
2019-04-28T12:37:54.680Z,14.37
2019-04-28T12:40:24.608Z,14.33
2019-04-28T12:42:54.479Z,14.33
2019-04-28T12:45:34.877Z,14.34
2019-04-28T12:48:07.041Z,14.34
2019-04-28T12:50:45.810Z,14.33
2019-04-28T12:53:15.755Z,14.29
2019-04-28T12:55:45.723Z,14.26
2019-04-28T12:58:15.684Z,14.22
2019-04-28T13:01:08.230Z,14.09
2019-04-28T13:03:43.331Z,14.02
2019-04-28T13:06:16.116Z,13.92
2019-04-28T13:08:46.234Z,13.72
2019-04-28T13:11:16.413Z,13.62
2019-04-28T13:13:47.078Z,13.57
2019-04-28T13:16:17.286Z,13.51
2019-04-28T13:18:48.338Z,13.50
2019-04-28T13:21:18.459Z,13.52
2019-04-28T13:23:49.071Z,13.65
2019-04-28T13:26:19.829Z,13.83
2019-04-28T13:28:50.341Z,13.99
2019-04-28T13:31:20.805Z,14.07
2019-04-28T13:33:56.300Z,14.07
2019-04-28T13:36:23.073Z,14.10
2019-04-28T13:38:53.497Z,14.12
2019-04-28T13:41:23.828Z,14.14
2019-04-28T13:43:53.608Z,14.09
2019-04-28T13:46:23.493Z,14.01
2019-04-28T13:48:53.690Z,14.01
2019-04-28T13:51:23.682Z,13.89
2019-04-28T13:53:54.500Z,13.86
2019-04-28T13:56:24.374Z,13.79
2019-04-28T13:59:02.635Z,13.68
2019-04-28T14:01:51.275Z,13.72
2019-04-28T14:04:33.653Z,13.68
2019-04-28T14:07:22.698Z,13.69
2019-04-28T14:09:57.206Z,13.65
2019-04-28T14:12:27.230Z,13.60
2019-04-28T14:14:57.738Z,13.63
2019-04-28T14:17:28.033Z,13.58
2019-04-28T14:19:58.770Z,13.58
2019-04-28T14:22:29.128Z,13.57
2019-04-28T14:24:59.263Z,13.53
2019-04-28T14:27:30.685Z,13.54
2019-04-28T14:30:00.700Z,13.56
2019-04-28T14:32:30.673Z,13.54
2019-04-28T14:35:01.192Z,13.51
2019-04-28T14:37:31.728Z,13.46
2019-04-28T14:40:01.843Z,13.47
2019-04-28T14:42:32.232Z,13.52
2019-04-28T14:45:02.191Z,13.56
2019-04-28T14:47:33.962Z,13.57
2019-04-28T14:50:04.400Z,13.62
2019-04-28T14:52:34.666Z,13.66
2019-04-28T14:55:05.056Z,13.71
2019-04-28T14:57:34.919Z,13.78
2019-04-28T15:00:05.128Z,13.84
2019-04-28T15:02:47.706Z,13.82
2019-04-28T15:05:39.065Z,13.81
2019-04-28T15:08:20.555Z,13.86
2019-04-28T15:11:15.364Z,13.94
2019-04-28T15:13:45.637Z,13.98
2019-04-28T15:16:15.581Z,14.01
2019-04-28T15:18:45.856Z,14.00
2019-04-28T15:21:15.913Z,14.01
2019-04-28T15:23:45.900Z,14.04
2019-04-28T15:26:16.360Z,14.09
2019-04-28T15:28:49.539Z,14.05
2019-04-28T15:31:21.137Z,14.04
2019-04-28T15:33:52.128Z,14.00
2019-04-28T15:39:12.289Z,14.03
2019-04-28T15:41:42.598Z,14.12
2019-04-28T15:44:12.563Z,14.21
2019-04-28T15:46:42.884Z,14.30
2019-04-28T15:49:13.129Z,14.41
2019-04-28T15:51:43.097Z,14.56
2019-04-28T15:54:13.670Z,14.67
2019-04-28T15:56:46.792Z,14.72
2019-04-28T15:59:17.658Z,14.91
2019-04-28T16:01:47.933Z,15.12
2019-04-28T16:04:18.427Z,15.39
2019-04-28T16:06:49.828Z,15.62
2019-04-28T16:09:19.693Z,15.79
2019-04-28T16:11:49.711Z,15.99
2019-04-28T16:14:19.684Z,16.12
2019-04-28T16:16:50.044Z,16.16
2019-04-28T16:19:19.913Z,16.30
2019-04-28T16:21:51.839Z,16.13
2019-04-28T16:24:24.473Z,16.03
2019-04-28T16:26:54.525Z,15.92
2019-04-28T16:29:24.878Z,15.93
2019-04-28T16:31:55.803Z,15.96
2019-04-28T16:34:25.830Z,16.14
2019-04-28T16:36:55.824Z,16.24
2019-04-28T16:39:25.803Z,16.40
2019-04-28T16:42:06.172Z,16.41
2019-04-28T16:44:39.111Z,16.45
2019-04-28T16:47:11.165Z,16.53
2019-04-28T16:49:41.466Z,16.65
2019-04-28T16:52:14.552Z,16.70
2019-04-28T16:54:47.186Z,16.73
2019-04-28T16:57:28.959Z,16.79
2019-04-28T17:00:16.909Z,16.70
2019-04-28T17:02:52.500Z,16.66
2019-04-28T17:05:22.718Z,16.55
2019-04-28T17:07:53.602Z,16.44
2019-04-28T17:10:23.602Z,16.16
2019-04-28T17:12:55.151Z,16.28
2019-04-28T17:15:25.170Z,16.29
2019-04-28T17:17:55.235Z,16.30
2019-04-28T17:20:25.194Z,16.40
2019-04-28T17:22:55.273Z,16.48
2019-04-28T17:25:25.341Z,16.37
2019-04-28T17:27:55.366Z,16.28
2019-04-28T17:30:25.618Z,16.25
2019-04-28T17:32:55.577Z,16.17
2019-04-28T17:35:25.785Z,16.08
2019-04-28T17:38:06.342Z,15.98
2019-04-28T17:40:31.883Z,15.84
2019-04-28T17:43:04.635Z,15.68
2019-04-28T17:45:34.544Z,15.62
2019-04-28T17:48:13.350Z,15.49
2019-04-28T17:50:45.351Z,15.41
2019-04-28T17:53:15.495Z,15.28
2019-04-28T17:55:45.816Z,15.18
2019-04-28T17:58:16.740Z,15.03
2019-04-28T18:01:24.515Z,14.96
2019-04-28T18:04:43.454Z,14.81
2019-04-28T18:07:25.317Z,14.75
2019-04-28T18:09:56.882Z,14.67
2019-04-28T18:12:27.515Z,14.66
2019-04-28T18:15:06.413Z,14.63
2019-04-28T18:17:59.284Z,14.61
2019-04-28T18:20:29.226Z,14.55
2019-04-28T18:22:59.137Z,14.50
2019-04-28T18:25:29.068Z,14.50
2019-04-28T18:27:59.180Z,14.43
2019-04-28T18:30:31.078Z,14.37
2019-04-28T18:33:18.887Z,14.33
2019-04-28T18:35:51.894Z,14.31
2019-04-28T18:38:34.810Z,14.28
2019-04-28T18:41:33.459Z,14.22
2019-04-28T18:44:28.538Z,14.12
2019-04-28T18:46:58.484Z,14.08
2019-04-28T18:49:28.420Z,14.01
2019-04-28T18:51:58.654Z,13.95
2019-04-28T18:54:28.604Z,13.91
2019-04-28T18:56:58.861Z,13.84
2019-04-28T18:59:28.842Z,13.80
2019-04-28T19:02:16.832Z,13.76
2019-04-28T19:04:46.792Z,13.68
2019-04-28T19:07:20.685Z,13.60
2019-04-28T19:09:59.042Z,13.53
2019-04-28T19:12:54.095Z,13.49
2019-04-28T19:16:01.836Z,13.44
2019-04-28T19:18:35.773Z,13.35
2019-04-28T19:21:05.816Z,13.29
2019-04-28T19:23:37.467Z,13.22
2019-04-28T19:26:07.323Z,13.16
2019-04-28T19:28:37.181Z,13.09
2019-04-28T19:31:07.124Z,13.04
2019-04-28T19:33:37.552Z,12.98
2019-04-28T19:36:07.401Z,12.92
2019-04-28T19:38:37.708Z,12.90
2019-04-28T19:41:08.049Z,12.87
2019-04-28T19:43:38.278Z,12.84
2019-04-28T19:46:11.209Z,12.80
2019-04-28T19:48:41.378Z,12.75
2019-04-28T19:51:11.220Z,12.71
2019-04-28T19:53:41.196Z,12.65
2019-04-28T19:56:17.535Z,12.60
2019-04-28T19:58:57.545Z,12.57
2019-04-28T20:01:29.633Z,12.54
2019-04-28T20:03:59.795Z,12.51
2019-04-28T20:06:29.573Z,12.49
2019-04-28T20:08:59.766Z,12.48
2019-04-28T20:11:30.470Z,12.45
2019-04-28T20:14:00.397Z,12.41
2019-04-28T20:16:30.339Z,12.40
2019-04-28T20:19:00.397Z,12.38
2019-04-28T20:21:30.395Z,12.35
2019-04-28T20:24:00.849Z,12.33
2019-04-28T20:26:31.166Z,12.27
2019-04-28T20:29:01.123Z,12.27
2019-04-28T20:31:31.240Z,12.28
2019-04-28T20:34:01.368Z,12.28
2019-04-28T20:36:48.643Z,12.25
2019-04-28T20:39:26.972Z,12.24
2019-04-28T20:41:59.103Z,12.20
2019-04-28T20:44:29.054Z,12.20
2019-04-28T20:46:58.949Z,12.22
2019-04-28T20:49:29.227Z,12.22
2019-04-28T20:51:59.080Z,12.21
2019-04-28T20:54:28.924Z,12.21
2019-04-28T20:56:58.854Z,12.18
2019-04-28T20:59:28.718Z,12.16
2019-04-28T21:01:58.538Z,12.18
2019-04-28T21:04:28.435Z,12.14
2019-04-28T21:06:58.607Z,12.10
2019-04-28T21:09:28.545Z,12.06
2019-04-28T21:11:58.788Z,12.02
2019-04-28T21:14:28.652Z,12.00
2019-04-28T21:16:58.589Z,11.95
2019-04-28T21:19:28.460Z,11.92
2019-04-28T21:21:58.298Z,11.90
2019-04-28T21:24:28.539Z,11.88
2019-04-28T21:26:58.484Z,11.86
2019-04-28T21:29:28.332Z,11.83
2019-04-28T21:31:58.352Z,11.78
2019-04-28T21:34:28.319Z,11.71
2019-04-28T21:36:58.108Z,11.67
2019-04-28T21:39:28.056Z,11.61
2019-04-28T21:41:59.164Z,11.57
2019-04-28T21:44:39.239Z,11.55
2019-04-28T21:47:19.071Z,11.55
2019-04-28T21:49:49.000Z,11.53
2019-04-28T21:52:18.896Z,11.51
2019-04-28T21:54:48.765Z,11.51
2019-04-28T21:57:18.546Z,11.46
2019-04-28T21:59:48.348Z,11.43
2019-04-28T22:02:18.285Z,11.39
2019-04-28T22:04:48.161Z,11.36
2019-04-28T22:07:18.054Z,11.36
2019-04-28T22:09:48.014Z,11.37
2019-04-28T22:12:17.949Z,11.39
2019-04-28T22:14:48.241Z,11.38
2019-04-28T22:17:18.020Z,11.36
2019-04-28T22:19:47.964Z,11.35
2019-04-28T22:22:17.909Z,11.33
2019-04-28T22:25:09.916Z,11.31
2019-04-28T22:27:42.080Z,11.30
2019-04-28T22:30:12.237Z,11.26
2019-04-28T22:32:42.475Z,11.26
2019-04-28T22:35:12.519Z,11.21
2019-04-28T22:37:42.379Z,11.17
2019-04-28T22:40:13.044Z,11.14
2019-04-28T22:42:43.030Z,11.08
2019-04-28T22:45:13.472Z,11.06
2019-04-28T22:47:43.414Z,11.05
2019-04-28T22:50:41.103Z,11.02
2019-04-28T22:53:12.614Z,11.01
2019-04-28T22:55:47.814Z,10.98
2019-04-28T22:58:27.034Z,10.97
2019-04-28T23:01:19.269Z,10.94
2019-04-28T23:03:57.232Z,10.89
2019-04-28T23:06:27.183Z,10.83
2019-04-28T23:08:57.313Z,10.78
2019-04-28T23:11:27.335Z,10.76
2019-04-28T23:13:57.257Z,10.75
2019-04-28T23:16:27.177Z,10.75
2019-04-28T23:18:57.892Z,10.77
2019-04-28T23:21:45.477Z,10.78
2019-04-28T23:24:15.422Z,10.78
2019-04-28T23:26:45.300Z,10.80
2019-04-28T23:29:15.160Z,10.81
2019-04-28T23:31:45.104Z,10.82
2019-04-28T23:34:14.881Z,10.81
2019-04-28T23:36:44.725Z,10.82
2019-04-28T23:39:14.659Z,10.80
2019-04-28T23:41:59.623Z,10.78
2019-04-28T23:44:29.557Z,10.78
2019-04-28T23:46:59.907Z,10.77
2019-04-28T23:49:31.004Z,10.74
2019-04-28T23:52:16.079Z,10.69
2019-04-28T23:54:49.348Z,10.66
2019-04-28T23:57:19.565Z,10.61
2019-04-28T23:59:49.511Z,10.55
